Latest Coastal Weather Observations for Hobart

IDT60701

Issued at 8:21 pm EST Friday 27 May 2016 (issued every 10 minutes, with the page automatically refreshed every 10 minutes)

About coastal observations | Map of coastal stations | Coastal observations for TAS | Marine services | Other Formats
Station Details ID: 094029 Name: HOBART (ELLERSLIE ROAD) Lat: -42.89 Lon: 147.33 Height: 50.5 m
Data from the previous 72 hours. | See also: Recent months at Hobart
Date/Time
EST
Temp

°C
Wind Pressure Rain
since 9am
mm
Weather Cloud Vis
km
Sea
Height
m
Swell
Dir
 
Speed
knots
Gust
knots
hPa Trend Height
m
Period
s
Dir
27/08:00pm 9.6 W 4 7 1007.3 - 0.0 - - - - - - -
27/07:30pm 10.2 WSW 7 11 1007.1 - 0.0 - - - - - - -
27/07:00pm 10.5 SSW 8 11 1006.9 - 0.0 - - - - - - -
27/06:30pm 10.4 SSW 9 13 1006.7 - 0.0 - - - - - - -
27/06:00pm 10.4 SSW 9 13 1006.4 - 0.0 - - - - - - -
27/05:30pm 10.4 SSW 7 10 1006.2 - 0.0 - - - - - - -
27/05:00pm 10.3 SSW 4 7 1006.1 - 0.0 - - - - - - -
27/04:30pm 11.0 S 6 9 1005.8 - 0.0 - - - - - - -
27/04:00pm 11.4 S 8 10 1005.4 - 0.0 - - - - - - -
27/03:30pm 11.8 SW 10 14 1005.1 - 0.0 - - - - - - -
27/03:00pm 11.9 SSW 7 11 1004.9 - 0.0 - - - - - - -
27/02:30pm 12.0 S 5 9 1004.6 - 0.0 - - - - - - -
27/02:00pm 11.4 SSW 6 9 1004.6 - 0.0 - - - - - - -
27/01:30pm 10.9 SSW 8 11 1004.7 - 0.0 - - - - - - -
27/01:00pm 10.8 SSW 8 11 1004.8 - 0.0 - - - - - - -
27/12:30pm 11.3 SSW 8 11 1004.7 - 0.0 - - - - - - -
27/12:00pm 11.2 SSW 9 12 1004.7 - 0.0 - - - - - - -
27/11:30am 10.7 SSW 9 13 1004.9 - 0.0 - - - - - - -
27/11:00am 10.4 SW 7 10 1005.1 - 0.0 - - - - - - -
27/10:30am 10.9 SSW 9 19 1005.0 - 0.0 - - - - - - -
27/10:00am 10.6 SW 9 15 1004.9 - 0.0 - - - - - - -
27/09:30am 10.4 SSW 12 19 1004.6 - 0.0 - - - - - - -
27/09:00am 10.0 SSW 11 16 1004.4 - 0.0 - - - - - - -
27/08:30am 10.2 SSW 9 13 1004.3 - 0.0 - - - - - - -
27/08:00am 10.1 SSW 9 16 1004.2 - 0.0 - - - - - - -
27/07:30am 9.9 SSW 9 12 1004.0 - 0.0 - - - - - - -
27/07:00am 9.9 SSW 9 12 1003.6 - 0.0 - - - - - - -
27/06:30am 10.0 SSW 10 17 1003.5 - 0.0 - - - - - - -
27/06:00am 10.1 SW 10 14 1003.5 - 0.0 - - - - - - -
27/05:30am 10.4 SW 11 18 1003.4 - 0.0 - - - - - - -
27/05:00am 10.5 SW 13 19 1003.1 - 0.0 - - - - - - -
27/04:30am 10.4 SW 13 21 1003.0 - 0.0 - - - - - - -
27/04:00am 10.4 SSW 11 20 1002.9 - 0.0 - - - - - - -
27/03:30am 10.4 SW 12 17 1002.8 - 0.0 - - - - - - -
27/03:00am 10.4 SW 11 15 1002.9 - 0.0 - - - - - - -
27/02:30am 10.3 SW 10 15 1003.1 - 0.0 - - - - - - -
27/02:00am 10.2 SW 10 15 1003.0 - 0.0 - - - - - - -
27/01:30am 10.2 SSW 6 10 1003.0 - 0.0 - - - - - - -
27/01:00am 10.3 SSW 6 10 1002.8 - 0.0 - - - - - - -
27/12:30am 10.3 SSW 7 10 1002.8 - 0.0 - - - - - - -
27/12:00am 10.4 SSW 8 11 1003.0 - 0.0 - - - - - - -
 
Date/Time
EST
Temp

°C
Wind Pressure Rain
since 9am
mm
Weather Cloud Vis
km
Sea
Height
m
Swell
Dir
 
Speed
knots
Gust
knots
hPa Trend Height
m
Period
s
Dir
26/11:30pm 10.6 SW 9 17 1003.1 - 0.0 - - - - - - -
26/11:00pm 10.6 SSW 9 13 1003.0 - 0.0 - - - - - - -
26/10:30pm 10.6 SW 10 13 1003.0 - 0.0 - - - - - - -
26/10:00pm 10.7 SW 12 17 1003.0 - 0.0 - - - - - - -
26/09:30pm 10.7 SSW 8 14 1002.9 - 0.0 - - - - - - -
26/09:00pm 10.8 SSW 9 13 1003.0 - 0.0 - - - - - - -
26/08:30pm 10.7 SSW 6 9 1002.9 - 0.0 - - - - - - -
26/08:00pm 10.8 SSW 7 10 1002.7 - 0.0 - - - - - - -
26/07:30pm 10.8 SW 4 7 1003.0 - 0.0 - - - - - - -
26/07:00pm 11.0 SSW 7 12 1002.8 - 0.0 - - - - - - -
26/06:30pm 10.9 SSW 5 9 1002.5 - 0.0 - - - - - - -
26/06:00pm 11.0 S 5 9 1002.3 - 0.0 - - - - - - -
26/05:30pm 11.2 S 5 7 1002.2 - 0.0 - - - - - - -
26/05:00pm 11.3 SE 6 8 1001.8 - 0.0 - - - - - - -
26/04:30pm 11.4 S 7 9 1001.5 - 0.0 - - - - - - -
26/04:00pm 11.6 SSW 8 10 1001.4 - 0.0 - - - - - - -
26/03:30pm 11.8 S 9 11 1001.2 - 0.0 - - - - - - -
26/03:00pm 12.1 S 5 7 1001.2 - 0.0 - - - - - - -
26/02:30pm 12.3 SW 8 13 1001.2 - 0.0 - - - - - - -
26/02:00pm 12.5 SSW 8 12 1001.4 - 0.0 - - - - - - -
26/01:30pm 12.8 SSW 6 10 1001.5 - 0.0 - - - - - - -
26/01:00pm 13.0 SW 8 13 1001.6 - 0.0 - - - - - - -
26/12:30pm 12.7 S 5 9 1001.6 - 0.0 - - - - - - -
26/12:00pm 11.4 NE 5 7 1001.6 - 0.0 - - - - - - -
26/11:30am 12.5 NNE 5 6 1001.9 - 0.0 - - - - - - -
26/11:00am 11.9 NNE 4 6 1002.4 - 0.0 - - - - - - -
26/10:30am 11.8 NNE 5 7 1002.7 - 0.0 - - - - - - -
26/10:00am 11.8 N 5 6 1002.8 - 0.0 - - - - - - -
26/09:30am 10.6 NNW 6 9 1003.0 - 0.0 - - - - - - -
26/09:00am 9.3 N 5 7 1002.9 - 0.0 - - - - - - -
26/08:30am 7.9 NW 4 6 1002.9 - 0.0 - - - - - - -
26/08:00am 7.7 NNW 5 7 1002.8 - 0.0 - - - - - - -
26/07:30am 8.4 NNE 5 6 1002.7 - 0.0 - - - - - - -
26/07:00am 8.7 WNW 6 8 1002.5 - 0.0 - - - - - - -
26/06:30am 8.4 NW 5 7 1002.5 - 0.0 - - - - - - -
26/06:00am 8.3 NNW 6 8 1002.3 - 0.0 - - - - - - -
26/05:30am 8.1 CALM 0 0 1002.2 - 0.0 - - - - - - -
26/05:00am 8.3 WNW 4 6 1002.3 - 0.0 - - - - - - -
26/04:30am 8.6 NW 4 5 1002.2 - 0.0 - - - - - - -
26/04:00am 8.2 N 1 5 1001.9 - 0.0 - - - - - - -
26/03:30am 8.5 NW 5 8 1001.8 - 0.0 - - - - - - -
26/03:00am 8.5 SSW 3 5 1001.8 - 0.0 - - - - - - -
26/02:30am 8.5 WNW 6 11 1001.8 - 0.0 - - - - - - -
26/02:00am 7.7 WNW 6 7 1001.7 - 0.0 - - - - - - -
26/01:30am 7.5 NNW 9 13 1001.8 - 0.0 - - - - - - -
26/01:00am 7.6 NNW 8 10 1001.7 - 0.0 - - - - - - -
26/12:30am 7.7 NNW 11 15 1002.0 - 0.0 - - - - - - -
26/12:00am 7.6 NNW 11 15 1002.4 - 0.0 - - - - - - -
 
Date/Time
EST
Temp

°C
Wind Pressure Rain
since 9am
mm
Weather Cloud Vis
km
Sea
Height
m
Swell
Dir
 
Speed
knots
Gust
knots
hPa Trend Height
m
Period
s
Dir
25/11:30pm 7.6 NW 7 11 1002.5 - 0.0 - - - - - - -
25/11:00pm 7.8 NW 9 14 1002.9 - 0.0 - - - - - - -
25/10:30pm 8.0 NW 6 9 1003.3 - 0.0 - - - - - - -
25/10:00pm 7.8 NNW 7 13 1003.3 - 0.0 - - - - - - -
25/09:30pm 7.2 ENE 1 4 1003.5 - 0.0 - - - - - - -
25/09:00pm 7.1 NE 4 5 1003.8 - 0.0 - - - - - - -
25/08:30pm 7.0 S 1 4 1004.1 - 0.0 - - - - - - -
25/08:00pm 7.0 NE 4 6 1004.1 - 0.0 - - - - - - -
25/07:30pm 7.5 N 4 6 1004.4 - 0.0 - - - - - - -
25/07:00pm 7.8 NNW 5 7 1004.7 - 0.0 - - - - - - -
25/06:30pm 7.7 NW 5 7 1005.0 - 0.0 - - - - - - -
25/06:00pm 8.1 NW 5 5 1005.2 - 0.0 - - - - - - -
25/05:30pm 8.1 W 2 5 1005.3 - 0.0 - - - - - - -
25/05:00pm 8.5 SW 3 6 1005.4 - 0.0 - - - - - - -
25/04:30pm 8.8 NW 5 7 1005.6 - 0.0 - - - - - - -
25/04:00pm 8.9 NW 5 7 1005.8 - 0.0 - - - - - - -
25/03:30pm 9.3 NNW 11 14 1006.3 - 0.0 - - - - - - -
25/03:00pm 9.3 NNW 11 15 1006.4 - 0.0 - - - - - - -
25/02:30pm 9.6 NNW 11 15 1006.7 - 0.0 - - - - - - -
25/02:00pm 9.7 NNW 6 11 1007.0 - 0.0 - - - - - - -
25/01:30pm 9.8 NNW 8 11 1007.5 - 0.0 - - - - - - -
25/01:00pm 8.4 NW 8 12 1008.0 - 0.0 - - - - - - -
25/12:30pm 8.2 NNW 9 12 1008.5 - 0.0 - - - - - - -
25/12:00pm 8.2 NNW 7 10 1009.0 - 0.0 - - - - - - -
25/11:30am 7.3 NW 10 14 1009.9 - 0.0 - - - - - - -
25/11:00am 7.2 NNW 11 16 1010.7 - 0.0 - - - - - - -
25/10:30am 6.3 NNW 11 14 1011.3 - 0.0 - - - - - - -
25/10:00am 5.6 NNW 6 8 1011.8 - 0.0 - - - - - - -
25/09:30am 4.9 NW 5 9 1012.2 - 0.0 - - - - - - -
25/09:00am 4.3 NW 8 13 1012.6 - 0.2 - - - - - - -
25/08:30am 3.8 NW 6 11 1012.8 - 0.2 - - - - - - -
25/08:00am 3.4 NW 10 15 1012.7 - 0.2 - - - - - - -
25/07:30am 3.2 NW 6 11 1012.4 - 0.2 - - - - - - -
25/07:00am 2.9 NW 7 10 1012.1 - 0.2 - - - - - - -
25/06:30am 2.9 NW 6 7 1012.9 - 0.2 - - - - - - -
25/06:00am 2.9 WNW 3 5 1013.2 - 0.2 - - - - - - -
25/05:30am 3.0 NW 7 10 1013.5 - 0.2 - - - - - - -
25/05:00am 3.4 NW 6 8 1013.8 - 0.2 - - - - - - -
25/04:30am 3.2 NW 7 9 1013.5 - 0.2 - - - - - - -
25/04:00am 3.4 NW 8 11 1013.6 - 0.2 - - - - - - -
25/03:30am 3.2 NNW 7 10 1013.4 - 0.2 - - - - - - -
25/03:00am 3.0 NW 5 8 1013.4 - 0.2 - - - - - - -
25/02:30am 3.8 NW 8 10 1013.9 - 0.2 - - - - - - -
25/02:00am 3.2 NW 4 5 1014.3 - 0.2 - - - - - - -
25/01:30am 4.1 NNW 6 8 1014.6 - 0.2 - - - - - - -
25/01:00am 4.4 W 5 8 1015.0 - 0.2 - - - - - - -
25/12:30am 4.6 NNW 5 7 1015.0 - 0.2 - - - - - - -
25/12:00am 5.3 WNW 5 8 1015.4 - 0.2 - - - - - - -
 
Date/Time
EST
Temp

°C
Wind Pressure Rain
since 9am
mm
Weather Cloud Vis
km
Sea
Height
m
Swell
Dir
 
Speed
knots
Gust
knots
hPa Trend Height
m
Period
s
Dir
24/11:30pm 5.9 NW 4 6 1015.5 - 0.2 - - - - - - -
24/11:00pm 7.0 WSW 7 10 1015.6 - 0.2 - - - - - - -
24/10:30pm 6.7 W 7 9 1016.0 - 0.2 - - - - - - -
24/10:00pm 6.8 W 7 12 1016.1 - 0.2 - - - - - - -
24/09:30pm 6.2 WNW 6 9 1016.1 - 0.2 - - - - - - -
24/09:00pm 6.3 W 7 8 1016.1 - 0.2 - - - - - - -
24/08:30pm 6.8 WNW 5 8 1016.1 - 0.2 - - - - - - -

Other Formats:

Comma delimited format used in spreadsheet applications
http://www.bom.gov.au/fwo/IDT60701/IDT60701.94970.axf

JavaScript Object Notation format (JSON) in row-major order
http://www.bom.gov.au/fwo/IDT60701/IDT60701.94970.json